Ferrellsburg, West Virginia
Current Conditions -  °F | °C
As of 11:15 AM on Tuesday 21 Oct 2014 (Local Time) from KSJS Reporting Station
Overcast Overcast  
Wind Chill: 54°   Ceiling: 1200
Heat Index: 54°   Visibility: 10mi
Dew Point: 50°   Wind: 6mph
Humidity: 87%   Direction: 280°W
Pressure: 29.99"   Gusts: NA
Location:  37.9989°N, 82.1851°W
Report Text: KSJS 211515Z AUTO 28005KT 10SM OVC012 12/10 A2999 RMK AO2 T01230102
Loading
Personal Weather Stations






























Interactive Weather Map
Tropical Storm Tracking
New forecast layout! Learn more

10-Day Weather Forecast

Advertisements
Track Severe Weather on mobile